This is the latest recevied weather packets stored in our database for station/object W0DXV. If no packets are shown the sender has not sent any weather packets the latest 1 day(s).
| Time | Temp. | Humidity | Pressure | Rain* | Wind** | Luminosity | Snow |
|---|---|---|---|---|---|---|---|
| 1778086331 | 20.56° C | 75% | 1010.3 hPa | 0 mm | 0.45 m/s, 232° | 115 W/m² | - |
| 1778086028 | 21.11° C | 74% | 1010.5 hPa | 0 mm | 0.45 m/s, 237° | 157 W/m² | - |
| 1778085725 | 21.11° C | 72% | 1010.4 hPa | 0 mm | 0.45 m/s, 230° | 138 W/m² | - |
| 1778085422 | 21.11° C | 71% | 1010.4 hPa | 0 mm | 0 m/s | 145 W/m² | - |
| 1778085117 | 21.11° C | 73% | 1010.6 hPa | 0 mm | 0 m/s | 162 W/m² | - |
| 1778084813 | 21.11° C | 71% | 1010.4 hPa | 0 mm | 0.45 m/s, 249° | 132 W/m² | - |
| 1778084511 | 21.11° C | 69% | 1010.3 hPa | 0 mm | 0.45 m/s, 251° | 120 W/m² | - |
| 1778084208 | 21.67° C | 71% | 1010.4 hPa | 0 mm | 0.45 m/s, 224° | 129 W/m² | - |
| 1778083904 | 21.67° C | 69% | 1010.6 hPa | 0 mm | 0.45 m/s, 252° | 162 W/m² | - |
| 1778083602 | 21.11° C | 71% | 1010.5 hPa | 0 mm | 0.45 m/s, 268° | 207 W/m² | - |
| 1778083299 | 21.11° C | 72% | 1010.3 hPa | 0 mm | 0.45 m/s, 272° | 242 W/m² | - |
| 1778082998 | 20.56° C | 73% | 1010.3 hPa | 0 mm | 0 m/s | 251 W/m² | - |
| 1778082694 | 20° C | 77% | 1009.9 hPa | 0 mm | 0 m/s | 217 W/m² | - |
| 1778081556 | 20° C | 77% | 1009.9 hPa | 0 mm | 0 m/s | 216 W/m² | - |
| 1778081253 | 19.44° C | 77% | 1009.4 hPa | 0 mm | 0.45 m/s, 254° | 179 W/m² | - |
| 1778080950 | 19.44° C | 78% | 1009.4 hPa | 0 mm | 0.45 m/s, 236° | 147 W/m² | - |
| 1778080649 | 19.44° C | 78% | 1009.3 hPa | 0 mm | 0.45 m/s, 237° | 135 W/m² | - |
| 1778080346 | 19.44° C | 78% | 1009.6 hPa | 0 mm | 0 m/s | 137 W/m² | - |
| 1778080042 | 19.44° C | 77% | 1009.4 hPa | 0 mm | 0 m/s | 77 W/m² | - |
| 1778079739 | 19.44° C | 77% | 1009.6 hPa | 0 mm | 0 m/s | 69 W/m² | - |
| 1778079437 | 18.89° C | 77% | 1009.7 hPa | 0 mm | 0.45 m/s, 250° | 101 W/m² | - |
| 1778079133 | 18.89° C | 78% | 1009.8 hPa | 0 mm | 0.45 m/s, 254° | 125 W/m² | - |
| 1778078830 | 18.89° C | 78% | 1009.7 hPa | 0 mm | 0 m/s | 63 W/m² | - |
| 1778078527 | 18.33° C | 77% | 1009.8 hPa | 0 mm | 0.45 m/s, 239° | 89 W/m² | - |
| 1778078225 | 18.33° C | 79% | 1010 hPa | 0 mm | 0.45 m/s, 240° | 78 W/m² | - |
* Rain latest hour (hover to see other rain measurements)
** Current wind speed in m/s (hover to see current wind gust speed)